Time;durP1;ratioP1;P1;durP2;ratioP2;P2;SDS_P1;SDS_P2;PMS_P1;PMS_P2;Temp;Humidity;BMP_temperature;BMP_pressure;BME280_temperature;BME280_humidity;BME280_pressure;Samples;Min_cycle;Max_cycle;Signal;HPM_P1;HPM_P2
2022/04/11 00:00:33;;;;;;;7.90;4.80;;;;;;;4.69;62.65;101879.28;4977498;28;20030;-77
2022/04/11 00:02:58;;;;;;;6.53;4.78;;;;;;;4.66;63.17;101877.50;4979230;28;20044;-77
2022/04/11 00:05:24;;;;;;;7.70;4.90;;;;;;;4.64;62.81;101871.44;4981378;28;20034;-77
2022/04/11 00:07:49;;;;;;;10.23;5.05;;;;;;;4.61;64.27;101862.81;4975544;28;20031;-76
2022/04/11 00:10:15;;;;;;;8.43;5.28;;;;;;;4.56;63.27;101861.03;4975188;28;20490;-76
2022/04/11 00:12:40;;;;;;;8.52;5.00;;;;;;;4.57;63.22;101864.50;4975596;28;20477;-77
2022/04/11 00:15:06;;;;;;;8.35;5.75;;;;;;;4.54;64.87;101859.28;4977269;28;20109;-77
2022/04/11 00:17:32;;;;;;;9.45;6.18;;;;;;;4.52;63.02;101855.81;4960968;28;20047;-77
2022/04/11 00:19:57;;;;;;;9.80;5.40;;;;;;;4.51;63.25;101859.22;4976071;28;20098;-77
2022/04/11 00:22:22;;;;;;;10.38;5.88;;;;;;;4.51;63.36;101854.06;4975843;28;20044;-77
2022/04/11 00:24:52;;;;;;;11.90;5.95;;;;;;;4.47;63.71;101855.75;4974960;28;20074;-77
2022/04/11 00:27:17;;;;;;;8.75;5.95;;;;;;;4.44;63.40;101857.41;4958609;28;20026;-77
2022/04/11 00:29:43;;;;;;;10.25;5.82;;;;;;;4.43;64.79;101853.09;4980654;28;21735;-76
2022/04/11 00:32:08;;;;;;;10.15;5.80;;;;;;;4.43;65.58;101850.53;4969203;28;20030;-77
2022/04/11 00:34:33;;;;;;;7.72;5.32;;;;;;;4.43;66.28;101843.66;4976014;28;20023;-77
2022/04/11 00:36:59;;;;;;;11.60;5.47;;;;;;;4.45;65.96;101838.50;4976656;28;20062;-77
2022/04/11 00:39:24;;;;;;;8.13;5.70;;;;;;;4.45;65.39;101833.34;4981843;28;20151;-77
2022/04/11 00:41:49;;;;;;;8.13;5.78;;;;;;;4.44;64.97;101836.81;4975178;28;20031;-76
2022/04/11 00:44:14;;;;;;;8.73;6.13;;;;;;;4.43;66.50;101833.34;4982278;28;20113;-77
2022/04/11 00:46:40;;;;;;;8.68;5.90;;;;;;;4.43;66.22;101829.91;4976283;28;20035;-76
2022/04/11 00:49:05;;;;;;;12.25;5.88;;;;;;;4.43;65.54;101824.75;4974319;28;20038;-76
2022/04/11 00:51:30;;;;;;;8.35;5.78;;;;;;;4.43;65.11;101824.75;4977319;28;20520;-76
2022/04/11 00:53:59;;;;;;;8.98;6.30;;;;;;;4.41;65.39;101822.13;4974721;28;20023;-77
2022/04/11 00:56:28;;;;;;;8.75;6.15;;;;;;;4.43;65.83;101824.75;4976290;28;20061;-77
2022/04/11 00:58:54;;;;;;;9.38;5.60;;;;;;;4.43;67.20;101823.03;4975160;28;20105;-77
2022/04/11 01:01:19;;;;;;;8.25;5.57;;;;;;;4.44;67.56;101818.75;4975265;28;20027;-77
2022/04/11 01:03:44;;;;;;;9.45;6.22;;;;;;;4.43;66.02;101815.31;4975037;28;20030;-76
2022/04/11 01:06:10;;;;;;;9.18;5.68;;;;;;;4.40;66.60;101813.56;4976896;28;20063;-77
2022/04/11 01:08:36;;;;;;;9.30;6.40;;;;;;;4.40;66.81;101816.13;4986429;28;20042;-77
2022/04/11 01:11:05;;;;;;;9.98;6.05;;;;;;;4.41;66.34;101809.25;4976638;28;20446;-77
2022/04/11 01:13:31;;;;;;;8.60;6.00;;;;;;;4.38;67.19;101804.94;4973512;28;20035;-77
2022/04/11 01:15:59;;;;;;;10.15;6.15;;;;;;;4.35;66.79;101802.31;4976011;28;20030;-76
2022/04/11 01:18:24;;;;;;;8.27;6.15;;;;;;;4.34;66.62;101803.16;4978564;28;20433;-77
2022/04/11 01:20:50;;;;;;;10.18;6.38;;;;;;;4.32;66.97;101804.81;4979600;28;20034;-76
2022/04/11 01:23:16;;;;;;;9.57;6.95;;;;;;;4.31;66.80;101800.50;4974199;28;20042;-77
2022/04/11 01:25:42;;;;;;;9.38;6.30;;;;;;;4.29;67.04;101799.63;4981689;28;20060;-77
2022/04/11 01:28:08;;;;;;;8.73;6.43;;;;;;;4.31;66.24;101803.09;4976254;28;20037;-76
2022/04/11 01:30:33;;;;;;;8.82;6.45;;;;;;;4.29;65.79;101801.34;4974724;28;20027;-77
2022/04/11 01:32:58;;;;;;;10.05;6.70;;;;;;;4.27;65.21;101801.31;4973609;28;20035;-76
2022/04/11 01:35:26;;;;;;;9.13;6.38;;;;;;;4.26;67.36;101799.59;4974055;28;20073;-77
2022/04/11 01:37:53;;;;;;;8.65;6.38;;;;;;;4.24;67.62;101799.56;4960139;28;20029;-77
2022/04/11 01:40:18;;;;;;;10.07;6.68;;;;;;;4.23;67.26;101795.25;4976602;28;20074;-77
2022/04/11 01:42:44;;;;;;;8.63;6.10;;;;;;;4.22;67.12;101802.97;4978443;28;20026;-78
2022/04/11 01:45:11;;;;;;;9.05;6.50;;;;;;;4.22;67.11;101802.97;4973457;28;20034;-77
2022/04/11 01:47:38;;;;;;;9.95;6.25;;;;;;;4.21;66.04;101798.66;4973324;28;20366;-77
2022/04/11 01:50:04;;;;;;;10.55;6.80;;;;;;;4.21;65.79;101803.81;4972998;28;20490;-77
2022/04/11 01:52:29;;;;;;;10.00;7.07;;;;;;;4.21;65.80;101801.22;4981231;28;20034;-77
2022/04/11 01:54:55;;;;;;;10.23;7.35;;;;;;;4.21;65.63;101806.38;4975713;28;20026;-77
2022/04/11 01:57:20;;;;;;;9.35;6.57;;;;;;;4.21;66.08;101803.81;4974119;28;20030;-76
2022/04/11 01:59:45;;;;;;;9.90;7.20;;;;;;;4.21;65.67;101798.66;4974371;28;20109;-77
2022/04/11 02:02:10;;;;;;;11.23;7.20;;;;;;;4.20;65.81;101797.75;4973525;28;20367;-77
2022/04/11 02:04:36;;;;;;;11.13;7.20;;;;;;;4.21;65.84;101799.50;4977717;28;20038;-76
2022/04/11 02:07:01;;;;;;;9.63;6.80;;;;;;;4.22;65.91;101797.81;4973189;28;20058;-77
2022/04/11 02:09:26;;;;;;;10.35;7.00;;;;;;;4.20;65.78;101791.75;4973748;28;20398;-77
2022/04/11 02:11:51;;;;;;;9.73;6.85;;;;;;;4.20;65.79;101791.75;4975075;28;20477;-77
2022/04/11 02:14:17;;;;;;;10.00;7.10;;;;;;;4.20;65.94;101791.75;4975560;28;20034;-76
2022/04/11 02:16:42;;;;;;;10.60;7.68;;;;;;;4.18;65.75;101794.31;4979348;28;20489;-77
2022/04/11 02:19:07;;;;;;;10.68;6.93;;;;;;;4.16;65.92;101790.84;4977229;28;20101;-77
2022/04/11 02:21:32;;;;;;;12.88;7.30;;;;;;;4.16;65.84;101795.13;4975093;28;20054;-77
2022/04/11 02:23:58;;;;;;;11.25;7.28;;;;;;;4.17;66.48;101796.84;4976166;28;20198;-77
2022/04/11 02:26:23;;;;;;;8.73;6.93;;;;;;;4.14;66.79;101794.22;4988111;28;20508;-77
2022/04/11 02:28:48;;;;;;;10.38;7.00;;;;;;;4.13;66.78;101800.22;4979498;28;20031;-77
2022/04/11 02:31:13;;;;;;;9.98;7.03;;;;;;;4.10;67.69;101794.16;4975679;28;20034;-76
2022/04/11 02:33:39;;;;;;;9.10;6.80;;;;;;;4.08;66.20;101793.31;4973487;28;20046;-77
2022/04/11 02:36:04;;;;;;;9.88;7.22;;;;;;;4.08;65.38;101801.03;4975697;28;20037;-76
2022/04/11 02:38:29;;;;;;;11.07;7.53;;;;;;;4.05;65.88;101803.53;4972745;28;20090;-77
2022/04/11 02:40:54;;;;;;;10.10;7.10;;;;;;;4.02;66.99;101805.19;4959673;28;20041;-76
2022/04/11 02:43:20;;;;;;;10.77;7.25;;;;;;;3.98;66.18;101796.53;4982631;28;20077;-77
2022/04/11 02:45:45;;;;;;;10.98;7.35;;;;;;;3.95;66.14;101794.78;4974559;28;20482;-77
2022/04/11 02:48:10;;;;;;;10.98;7.45;;;;;;;3.91;67.26;101799.88;4974146;28;20058;-76
2022/04/11 02:50:36;;;;;;;10.10;7.07;;;;;;;3.86;67.01;101788.63;4973444;28;20085;-76
2022/04/11 02:53:01;;;;;;;15.13;7.88;;;;;;;3.84;66.62;101792.88;4976079;28;20081;-77
2022/04/11 02:55:26;;;;;;;10.40;7.15;;;;;;;3.79;67.17;101785.94;4975007;28;20038;-76
2022/04/11 02:57:51;;;;;;;9.82;7.47;;;;;;;3.79;67.80;101785.94;4972648;28;20027;-77
2022/04/11 03:00:18;;;;;;;10.82;7.38;;;;;;;3.80;68.16;101790.25;4975078;28;20037;-76
2022/04/11 03:02:44;;;;;;;9.25;6.93;;;;;;;3.79;68.39;101791.06;4977550;28;20070;-77
2022/04/11 03:05:09;;;;;;;10.57;6.68;;;;;;;3.76;67.45;101785.88;4976567;28;20039;-76
2022/04/11 03:07:34;;;;;;;9.65;7.40;;;;;;;3.72;68.29;101784.09;4978578;28;20067;-77
2022/04/11 03:10:00;;;;;;;9.15;6.90;;;;;;;3.70;67.05;101782.31;4978040;28;20035;-77
2022/04/11 03:12:25;;;;;;;10.38;7.30;;;;;;;3.66;67.10;101776.25;4976178;28;20113;-77
2022/04/11 03:14:51;;;;;;;10.40;7.35;;;;;;;3.61;67.50;101780.44;4976421;28;20059;-77
2022/04/11 03:17:17;;;;;;;12.20;8.07;;;;;;;3.57;67.69;101779.53;4978995;28;20204;-76
2022/04/11 03:19:44;;;;;;;11.98;7.32;;;;;;;3.54;67.78;101773.47;4976786;28;20026;-77
2022/04/11 03:22:10;;;;;;;11.50;7.45;;;;;;;3.50;67.58;101775.13;4983604;28;20041;-77
2022/04/11 03:24:35;;;;;;;9.85;7.50;;;;;;;3.48;67.42;101769.94;4979572;28;20544;-77
2022/04/11 03:27:01;;;;;;;9.63;7.07;;;;;;;3.45;68.26;101775.03;4981953;28;20027;-77
2022/04/11 03:29:26;;;;;;;10.27;7.65;;;;;;;3.42;68.29;101774.97;4978854;28;20146;-77
2022/04/11 03:31:52;;;;;;;10.37;7.60;;;;;;;3.40;69.01;101771.50;4977304;28;20035;-77
2022/04/11 03:34:17;;;;;;;10.47;7.43;;;;;;;3.39;68.61;101782.66;4980358;28;20026;-75
2022/04/11 03:36:42;;;;;;;10.83;7.03;;;;;;;3.37;67.96;101768.88;4976790;28;20035;-76
2022/04/11 03:39:08;;;;;;;12.13;7.25;;;;;;;3.34;67.84;101771.38;4975406;28;20447;-76
2022/04/11 03:41:33;;;;;;;9.38;6.72;;;;;;;3.32;68.37;101778.19;4979221;28;20034;-77
2022/04/11 03:43:59;;;;;;;10.93;7.03;;;;;;;3.30;68.80;101780.75;4977636;28;20030;-76
2022/04/11 03:46:24;;;;;;;9.70;7.07;;;;;;;3.28;68.32;101779.84;4975292;28;20384;-76
2022/04/11 03:48:49;;;;;;;9.40;7.30;;;;;;;3.25;68.33;101776.34;4976872;28;20039;-76
2022/04/11 03:51:14;;;;;;;11.80;7.20;;;;;;;3.22;68.13;101786.59;4978233;28;20053;-76
2022/04/11 03:53:40;;;;;;;9.63;7.37;;;;;;;3.19;68.65;101785.69;4980082;28;20030;-77
2022/04/11 03:56:06;;;;;;;10.23;7.25;;;;;;;3.16;68.83;101784.75;4976395;28;20033;-77
2022/04/11 03:58:31;;;;;;;11.52;7.45;;;;;;;3.09;68.50;101781.19;4981302;28;20037;-77
2022/04/11 04:00:56;;;;;;;9.30;7.30;;;;;;;3.07;69.20;101782.88;4977087;28;20145;-76
2022/04/11 04:03:22;;;;;;;8.80;7.03;;;;;;;3.04;68.61;101781.09;4976350;28;20039;-77
2022/04/11 04:05:47;;;;;;;9.77;7.18;;;;;;;3.02;67.93;101780.19;4976003;28;20027;-77
2022/04/11 04:08:14;;;;;;;9.87;7.13;;;;;;;3.00;68.66;101791.28;4976332;28;20043;-77
2022/04/11 04:10:43;;;;;;;9.47;7.20;;;;;;;2.99;68.59;101781.84;4976135;28;20053;-77
2022/04/11 04:13:08;;;;;;;9.60;7.00;;;;;;;2.97;68.36;101788.63;4978661;28;20134;-77
2022/04/11 04:15:34;;;;;;;11.00;7.27;;;;;;;2.94;68.87;101786.00;4976219;28;20517;-77
2022/04/11 04:17:59;;;;;;;10.10;7.47;;;;;;;2.95;68.57;101787.75;4975704;28;20060;-76
2022/04/11 04:20:26;;;;;;;9.63;6.77;;;;;;;2.88;67.90;101782.47;4977179;28;20069;-76
2022/04/11 04:22:52;;;;;;;9.87;6.80;;;;;;;2.87;68.80;101780.75;4975814;28;20022;-76
2022/04/11 04:25:17;;;;;;;11.40;7.10;;;;;;;2.85;69.30;101777.28;4974809;28;20022;-77
2022/04/11 04:27:42;;;;;;;9.27;6.70;;;;;;;2.81;68.95;101775.47;4976629;28;20027;-76
2022/04/11 04:30:08;;;;;;;9.33;7.00;;;;;;;2.76;68.82;101769.34;4958229;28;20035;-76
2022/04/11 04:32:33;;;;;;;9.53;7.23;;;;;;;2.73;69.22;101761.59;4980726;28;20409;-76
2022/04/11 04:35:00;;;;;;;13.90;6.90;;;;;;;2.71;69.55;101760.69;4977195;28;20123;-77
2022/04/11 04:37:25;;;;;;;9.57;6.63;;;;;;;2.71;69.39;101763.25;4976234;28;20034;-77
2022/04/11 04:39:51;;;;;;;8.00;6.27;;;;;;;2.70;68.81;101761.53;4957822;28;20023;-77
2022/04/11 04:42:22;;;;;;;9.73;6.77;;;;;;;2.68;68.88;101763.19;4981156;28;20462;-76
2022/04/11 04:44:48;;;;;;;9.50;7.27;;;;;;;2.65;69.35;101758.84;4979584;28;20026;-77
2022/04/11 04:47:15;;;;;;;11.60;7.03;;;;;;;2.65;68.69;101763.13;4976915;28;20038;-76
2022/04/11 04:49:41;;;;;;;9.23;6.67;;;;;;;2.62;68.56;101763.06;4975004;28;20034;-76
2022/04/11 04:52:07;;;;;;;10.73;7.13;;;;;;;2.61;68.34;101757.06;4976709;28;20050;-76
2022/04/11 04:54:32;;;;;;;10.00;6.63;;;;;;;2.58;68.69;101755.28;4957142;28;20034;-76
2022/04/11 04:56:58;;;;;;;9.90;7.00;;;;;;;2.56;68.56;101759.50;4977105;28;20033;-76
2022/04/11 04:59:24;;;;;;;9.57;7.17;;;;;;;2.56;69.46;101762.06;4975234;28;20030;-77
2022/04/11 05:01:49;;;;;;;10.67;6.73;;;;;;;2.56;69.57;101759.50;4959214;28;20039;-77
2022/04/11 05:04:14;;;;;;;10.17;7.03;;;;;;;2.56;69.49;101754.38;4975759;28;20035;-77
2022/04/11 05:06:40;;;;;;;11.03;7.07;;;;;;;2.58;69.48;101750.13;4973455;28;20034;-77
2022/04/11 05:09:05;;;;;;;10.77;6.83;;;;;;;2.58;69.96;101751.84;4976097;28;20027;-76
2022/04/11 05:11:30;;;;;;;9.97;7.10;;;;;;;2.60;69.53;101747.63;4976982;28;20027;-77
2022/04/11 05:13:55;;;;;;;11.20;7.20;;;;;;;2.61;69.63;101754.50;4973889;28;20042;-77
2022/04/11 05:16:21;;;;;;;10.80;7.20;;;;;;;2.63;69.52;101751.94;4978568;28;20473;-77
2022/04/11 05:18:46;;;;;;;10.57;7.07;;;;;;;2.63;68.82;101754.50;4974466;28;20198;-77
2022/04/11 05:21:12;;;;;;;10.97;7.00;;;;;;;2.65;69.50;101747.72;4980369;28;20058;-77
2022/04/11 05:23:37;;;;;;;12.10;7.57;;;;;;;2.64;69.18;101745.97;4979610;28;20455;-77
2022/04/11 05:26:05;;;;;;;15.37;7.70;;;;;;;2.64;69.14;101751.09;4976679;28;20411;-77
2022/04/11 05:28:32;;;;;;;11.23;7.33;;;;;;;2.63;70.05;101754.50;4973494;28;20383;-77
2022/04/11 05:30:57;;;;;;;12.60;7.20;;;;;;;2.65;69.26;101757.97;4978870;28;20030;-77
2022/04/11 05:33:22;;;;;;;12.10;8.07;;;;;;;2.65;69.13;101757.97;4976321;28;20521;-77
2022/04/11 05:35:48;;;;;;;11.97;8.17;;;;;;;2.67;69.30;101756.31;4973510;28;20441;-77
2022/04/11 05:38:14;;;;;;;12.60;7.60;;;;;;;2.69;69.38;101752.09;4973196;28;20044;-77
2022/04/11 05:40:39;;;;;;;12.57;7.83;;;;;;;2.72;69.28;101749.59;4973501;28;20034;-77
2022/04/11 05:43:06;;;;;;;12.97;8.13;;;;;;;2.77;69.23;101753.09;4973159;28;20030;-77
2022/04/11 05:45:32;;;;;;;12.17;8.30;;;;;;;2.82;69.06;101751.50;4959279;28;20043;-77
2022/04/11 05:47:57;;;;;;;13.37;7.73;;;;;;;2.88;68.82;101749.06;4975064;28;20026;-77
2022/04/11 05:50:22;;;;;;;11.37;8.07;;;;;;;2.94;68.33;101753.47;4956877;28;20034;-77
2022/04/11 05:52:47;;;;;;;12.60;8.47;;;;;;;3.01;68.32;101752.75;4973154;28;20035;-76
2022/04/11 05:55:13;;;;;;;11.43;7.77;;;;;;;3.08;68.62;101753.72;4978157;28;20049;-77
2022/04/11 05:57:38;;;;;;;12.57;8.40;;;;;;;3.15;68.45;101753.03;4974080;28;20037;-77
2022/04/11 06:00:04;;;;;;;13.00;9.03;;;;;;;3.22;68.33;101751.44;4980771;28;20022;-77
2022/04/11 06:02:29;;;;;;;10.80;8.27;;;;;;;3.29;67.67;101748.16;4980088;28;20494;-77
2022/04/11 06:04:54;;;;;;;12.27;7.88;;;;;;;3.37;67.17;101745.72;4980866;28;20031;-77
2022/04/11 06:07:21;;;;;;;10.80;7.53;;;;;;;3.43;68.58;101745.81;4973324;28;20031;-77
2022/04/11 06:09:47;;;;;;;10.60;7.10;;;;;;;3.49;68.39;101745.94;4974812;28;20029;-77
2022/04/11 06:12:12;;;;;;;13.43;7.60;;;;;;;3.58;67.98;101745.25;4978428;28;20031;-77
2022/04/11 06:14:37;;;;;;;10.60;7.60;;;;;;;3.68;68.53;101751.44;4977391;28;20038;-77
2022/04/11 06:17:03;;;;;;;10.77;7.68;;;;;;;3.76;68.83;101749.84;4973515;28;20134;-78
2022/04/11 06:19:28;;;;;;;12.10;7.87;;;;;;;3.85;68.14;101748.28;4980498;28;20390;-78
2022/04/11 06:21:53;;;;;;;12.85;7.97;;;;;;;3.92;68.36;101750.97;4976826;28;20235;-78
2022/04/11 06:24:18;;;;;;;14.35;8.32;;;;;;;4.02;68.33;101752.00;4972025;28;20054;-77
2022/04/11 06:26:44;;;;;;;10.43;7.95;;;;;;;4.10;68.36;101754.69;4974102;28;20409;-77
2022/04/11 06:29:10;;;;;;;9.50;7.73;;;;;;;4.17;68.76;101751.38;4976337;28;20066;-75
2022/04/11 06:31:35;;;;;;;14.77;8.38;;;;;;;4.27;68.61;101748.94;4974671;28;20062;-77
2022/04/11 06:34:00;;;;;;;11.88;7.95;;;;;;;4.32;67.74;101745.56;4974950;28;20038;-76
2022/04/11 06:36:26;;;;;;;12.48;8.07;;;;;;;4.40;67.83;101749.16;4975362;28;20034;-77
2022/04/11 06:38:51;;;;;;;11.63;8.20;;;;;;;4.47;68.24;101755.25;4980538;28;20038;-77
2022/04/11 06:41:16;;;;;;;11.85;8.52;;;;;;;4.53;67.69;101750.16;4983225;28;20035;-77
2022/04/11 06:43:41;;;;;;;13.63;7.72;;;;;;;4.61;67.25;101750.25;4976273;28;20038;-78
2022/04/11 06:46:07;;;;;;;12.68;7.40;;;;;;;4.67;67.27;101740.06;4978923;28;20540;-77
2022/04/11 06:48:32;;;;;;;12.07;7.78;;;;;;;4.74;67.08;101743.56;4962529;28;20033;-78
2022/04/11 06:50:57;;;;;;;11.57;7.82;;;;;;;4.80;66.75;101743.66;4982933;28;20035;-77
2022/04/11 06:53:23;;;;;;;10.60;7.47;;;;;;;4.85;66.13;101746.28;4986932;28;20560;-78
2022/04/11 06:55:48;;;;;;;12.48;7.80;;;;;;;4.91;67.07;101746.38;4988409;28;20683;-78
2022/04/11 06:58:17;;;;;;;10.63;7.40;;;;;;;4.98;66.77;101757.63;4988314;28;20033;-77
2022/04/11 07:00:46;;;;;;;10.77;7.78;;;;;;;5.05;66.37;101756.00;4988620;28;20432;-78
2022/04/11 07:03:12;;;;;;;11.35;7.55;;;;;;;5.11;66.40;101761.22;4989554;28;20065;-78
2022/04/11 07:05:38;;;;;;;10.15;7.22;;;;;;;5.18;66.28;101755.28;4990252;28;20034;-77
2022/04/11 07:08:05;;;;;;;10.60;7.22;;;;;;;5.27;67.39;101760.56;4988458;28;20088;-77
2022/04/11 07:10:31;;;;;;;9.95;7.35;;;;;;;5.37;67.35;101755.50;4989301;28;20116;-77
2022/04/11 07:12:57;;;;;;;10.52;7.68;;;;;;;5.44;66.05;101758.16;4987390;28;20397;-77
2022/04/11 07:15:23;;;;;;;9.63;7.35;;;;;;;5.52;66.76;101753.06;4986680;28;20066;-78
2022/04/11 07:17:48;;;;;;;11.05;7.55;;;;;;;5.60;65.94;101759.19;4988036;28;20161;-77
2022/04/11 07:20:14;;;;;;;11.85;7.53;;;;;;;5.67;66.90;101759.22;4988692;28;20141;-78
2022/04/11 07:22:40;;;;;;;11.88;8.00;;;;;;;5.76;66.98;101754.16;4987698;28;20408;-77
2022/04/11 07:25:05;;;;;;;10.85;7.50;;;;;;;5.83;66.78;101749.91;4987992;28;20077;-78
2022/04/11 07:27:31;;;;;;;9.32;7.53;;;;;;;5.90;66.04;101744.81;4988906;28;20038;-78
2022/04/11 07:29:56;;;;;;;11.18;7.43;;;;;;;6.00;66.50;101737.16;4989087;28;20524;-78
2022/04/11 07:32:21;;;;;;;9.45;6.93;;;;;;;6.07;66.50;101739.78;4990425;28;20033;-78
2022/04/11 07:34:47;;;;;;;10.32;7.07;;;;;;;6.14;66.40;101734.69;4989191;28;20030;-78
2022/04/11 07:37:13;;;;;;;11.35;7.22;;;;;;;6.20;65.56;101734.72;4989118;28;20034;-78
2022/04/11 07:39:38;;;;;;;10.30;6.57;;;;;;;6.27;65.16;101730.47;4988508;28;20033;-77
2022/04/11 07:42:04;;;;;;;12.68;7.47;;;;;;;6.34;65.30;101732.22;4988910;28;20129;-78
2022/04/11 07:44:29;;;;;;;10.18;6.68;;;;;;;6.41;65.27;101727.94;4987615;28;20041;-78
2022/04/11 07:46:54;;;;;;;12.38;6.85;;;;;;;6.46;64.98;101727.16;4988572;28;20043;-78
2022/04/11 07:49:20;;;;;;;9.85;6.70;;;;;;;6.55;64.77;101725.44;4987187;28;20104;-78
2022/04/11 07:51:45;;;;;;;9.02;6.68;;;;;;;6.63;64.99;101718.59;4989399;28;20034;-77
2022/04/11 07:54:10;;;;;;;9.73;6.43;;;;;;;6.71;64.79;101722.09;4989273;28;20495;-77
2022/04/11 07:56:36;;;;;;;8.93;6.47;;;;;;;6.78;63.69;101718.69;4970472;28;20251;-78
2022/04/11 07:59:01;;;;;;;9.38;6.53;;;;;;;6.86;65.72;101720.41;4991162;28;20028;-78
2022/04/11 08:01:28;;;;;;;9.38;6.55;;;;;;;6.93;64.02;101717.00;4988083;28;20060;-78
2022/04/11 08:03:53;;;;;;;8.50;5.88;;;;;;;6.99;63.12;101710.13;4988684;28;20485;-78
2022/04/11 08:06:18;;;;;;;9.35;5.47;;;;;;;7.07;61.99;101707.56;4988485;28;20037;-78
2022/04/11 08:08:47;;;;;;;8.57;5.63;;;;;;;7.17;62.44;101710.19;4987993;28;20034;-77
2022/04/11 08:11:17;;;;;;;7.25;5.53;;;;;;;7.26;62.25;101702.44;4987190;28;20037;-78
2022/04/11 08:13:44;;;;;;;9.32;5.28;;;;;;;7.33;61.19;101705.88;4989140;28;20481;-77
2022/04/11 08:16:10;;;;;;;8.32;5.45;;;;;;;7.40;61.18;101702.47;4986813;28;20149;-78
2022/04/11 08:18:36;;;;;;;8.95;4.70;;;;;;;7.49;60.37;101702.47;4987402;28;20037;-78
2022/04/11 08:21:02;;;;;;;6.88;5.05;;;;;;;7.59;60.25;101699.03;4979694;28;20031;-78
2022/04/11 08:23:28;;;;;;;7.80;4.53;;;;;;;7.70;59.95;101695.56;4978514;28;20121;-78
2022/04/11 08:25:53;;;;;;;7.65;4.80;;;;;;;7.79;59.77;101695.56;4976112;28;20497;-78
2022/04/11 08:28:22;;;;;;;7.72;4.90;;;;;;;7.88;60.50;101684.31;4975422;28;20039;-78
2022/04/11 08:30:48;;;;;;;7.38;4.70;;;;;;;7.97;60.15;101684.34;4978530;28;20037;-78
2022/04/11 08:33:13;;;;;;;6.47;4.38;;;;;;;8.05;59.65;101687.75;4976799;28;20035;-78
2022/04/11 08:35:39;;;;;;;8.70;4.55;;;;;;;8.11;58.22;101686.91;4976704;28;20035;-78
2022/04/11 08:38:04;;;;;;;7.13;4.20;;;;;;;8.18;59.48;101686.00;4976662;28;20038;-78
2022/04/11 08:40:30;;;;;;;6.53;4.07;;;;;;;8.27;58.85;101682.53;4978795;28;20117;-77
2022/04/11 08:42:55;;;;;;;8.32;4.38;;;;;;;8.34;60.53;101683.38;4974463;28;20105;-77
2022/04/11 08:45:23;;;;;;;6.35;4.50;;;;;;;8.40;60.35;101679.91;4976061;28;20037;-77
2022/04/11 08:47:50;;;;;;;8.07;3.97;;;;;;;8.46;57.93;101678.16;4976320;28;20034;-77
2022/04/11 08:50:16;;;;;;;7.50;4.05;;;;;;;8.53;57.23;101668.69;4981353;28;20034;-77
2022/04/11 08:52:42;;;;;;;7.75;4.03;;;;;;;8.61;57.81;101682.47;4960657;28;20114;-80
2022/04/11 08:55:09;;;;;;;7.57;3.72;;;;;;;8.70;57.85;101680.72;4974414;28;20113;-77
2022/04/11 08:57:36;;;;;;;5.70;3.63;;;;;;;8.78;57.10;101673.75;4976212;28;20478;-77
2022/04/11 09:00:11;;;;;;;5.57;3.92;;;;;;;8.86;56.78;101668.50;4976027;28;20549;-77
2022/04/11 09:02:36;;;;;;;5.72;3.28;;;;;;;8.92;54.95;101661.56;4979815;28;20026;-77
2022/04/11 09:05:03;;;;;;;7.07;3.70;;;;;;;8.99;55.60;101659.78;4975244;28;20041;-78
2022/04/11 09:07:43;;;;;;;5.50;3.70;;;;;;;9.07;57.61;101667.50;4956740;28;20062;-78
2022/04/11 09:10:08;;;;;;;5.50;3.88;;;;;;;9.13;55.58;101667.50;4982874;28;20033;-78
2022/04/11 09:12:45;;;;;;;4.78;3.67;;;;;;;9.20;55.41;101671.78;4979996;28;20026;-77
2022/04/11 09:15:10;;;;;;;5.97;3.88;;;;;;;9.29;54.65;101669.97;4975187;28;20085;-79
2022/04/11 09:17:40;;;;;;;6.93;3.72;;;;;;;9.37;56.04;101668.22;4975147;28;20058;-78
2022/04/11 09:20:07;;;;;;;7.57;4.10;;;;;;;9.42;52.49;101666.41;4975310;28;20035;-77
2022/04/11 09:22:33;;;;;;;6.18;3.45;;;;;;;9.47;52.57;101666.41;4976070;28;20039;-78
2022/04/11 09:25:09;;;;;;;6.78;3.38;;;;;;;9.52;54.69;101670.69;4977620;28;20029;-78
2022/04/11 09:27:35;;;;;;;6.32;3.35;;;;;;;9.60;53.35;101664.53;4978407;28;20074;-77
2022/04/11 09:30:00;;;;;;;6.90;3.85;;;;;;;9.66;53.98;101654.09;4959602;28;20564;-77
2022/04/11 09:32:29;;;;;;;5.32;3.67;;;;;;;9.70;53.43;101653.22;4980753;28;20065;-77
2022/04/11 09:34:56;;;;;;;5.32;3.78;;;;;;;9.76;52.24;101653.13;4977024;28;20420;-78
2022/04/11 09:37:23;;;;;;;5.85;3.80;;;;;;;9.83;51.70;101644.41;4967133;28;20027;-78
2022/04/11 09:39:59;;;;;;;5.60;3.63;;;;;;;9.90;52.53;101634.81;4973838;28;20323;-78
2022/04/11 09:42:32;;;;;;;4.57;3.40;;;;;;;9.96;54.64;101626.97;4978902;28;20034;-78
2022/04/11 09:45:01;;;;;;;6.45;3.28;;;;;;;10.03;52.04;101628.63;4976093;28;20037;-82
2022/04/11 09:47:26;;;;;;;7.15;3.63;;;;;;;10.08;50.09;101625.94;4985712;28;20026;-78
2022/04/11 09:49:52;;;;;;;4.65;3.33;;;;;;;10.12;49.80;101625.06;4976700;28;20473;-78
2022/04/11 09:52:18;;;;;;;6.40;3.03;;;;;;;10.18;49.46;101622.41;4976962;28;20022;-78
2022/04/11 09:54:45;;;;;;;5.82;3.40;;;;;;;10.25;49.38;101622.31;4975659;28;20100;-78
2022/04/11 09:57:13;;;;;;;7.05;3.30;;;;;;;10.32;51.37;101621.38;4978401;28;20393;-78
2022/04/11 09:59:41;;;;;;;4.78;3.10;;;;;;;10.37;48.51;101618.69;4981163;28;20019;-77
2022/04/11 10:02:11;;;;;;;4.97;2.85;;;;;;;10.42;48.39;101620.38;4978628;28;20098;-77
2022/04/11 10:04:38;;;;;;;7.03;3.75;;;;;;;10.46;46.40;101616.03;4964106;28;20034;-78
2022/04/11 10:07:04;;;;;;;7.78;3.17;;;;;;;10.50;48.61;101624.66;4984945;28;20390;-78
2022/04/11 10:09:30;;;;;;;6.35;2.88;;;;;;;10.53;47.24;101611.59;4980624;28;20482;-78
2022/04/11 10:11:55;;;;;;;7.30;2.97;;;;;;;10.57;47.91;101603.72;4977424;28;20782;-78
2022/04/11 10:14:23;;;;;;;5.10;3.13;;;;;;;10.64;49.88;101607.09;4984509;28;20109;-78
2022/04/11 10:16:52;;;;;;;6.13;3.10;;;;;;;10.69;48.71;101602.72;4983604;28;20051;-77
2022/04/11 10:19:22;;;;;;;6.40;3.17;;;;;;;10.76;49.40;101609.53;4982772;28;20422;-77
2022/04/11 10:21:49;;;;;;;6.13;3.17;;;;;;;10.83;50.17;101602.53;4986857;28;20488;-78
2022/04/11 10:24:29;;;;;;;4.85;3.15;;;;;;;10.92;49.17;101596.31;4983893;28;20477;-78
2022/04/11 10:26:56;;;;;;;6.15;3.25;;;;;;;10.99;48.62;101600.53;4983028;28;20105;-78
2022/04/11 10:29:39;;;;;;;5.18;2.88;;;;;;;11.05;49.40;101594.38;4988102;28;20444;-78
2022/04/11 10:32:22;;;;;;;5.03;2.67;;;;;;;11.11;49.21;101593.41;4984047;28;20049;-77
2022/04/11 10:34:47;;;;;;;5.88;3.08;;;;;;;11.19;48.96;101596.75;4965426;28;20035;-77
2022/04/11 10:37:13;;;;;;;6.40;2.78;;;;;;;11.27;47.74;101589.69;4984141;28;20038;-78
2022/04/11 10:39:39;;;;;;;8.25;2.80;;;;;;;11.34;47.24;101586.09;4983841;28;20029;-78
2022/04/11 10:42:15;;;;;;;5.57;2.70;;;;;;;11.41;48.87;101586.00;4984727;28;20109;-77
2022/04/11 10:44:43;;;;;;;4.38;2.75;;;;;;;11.45;47.33;101592.84;4980898;28;20050;-78
2022/04/11 10:47:17;;;;;;;7.88;3.30;;;;;;;11.49;48.05;101584.09;4984074;28;20041;-77
2022/04/11 10:49:48;;;;;;;4.60;2.80;;;;;;;11.54;46.82;101582.28;4966650;28;20108;-77
2022/04/11 10:52:33;;;;;;;7.35;2.88;;;;;;;11.63;47.67;101584.69;4986320;28;20519;-78
2022/04/11 10:55:12;;;;;;;7.50;3.30;;;;;;;11.68;47.25;101584.66;4980425;28;20652;-78
2022/04/11 10:57:47;;;;;;;5.20;2.95;;;;;;;11.73;47.18;101566.31;4983690;28;20433;-78
2022/04/11 11:00:19;;;;;;;5.47;3.10;;;;;;;11.76;46.61;101569.69;4979578;28;20027;-78
2022/04/11 11:02:51;;;;;;;4.18;2.78;;;;;;;11.82;46.45;101556.56;4984488;28;20493;-78
2022/04/11 11:05:38;;;;;;;7.35;2.88;;;;;;;11.89;47.43;101559.91;4966714;28;20034;-78
2022/04/11 11:10:52;;;;;;;7.07;3.80;;;;;;;11.93;46.63;101558.97;4981639;28;20493;-78
2022/04/11 11:13:38;;;;;;;5.72;3.08;;;;;;;11.97;45.73;101557.13;4977622;28;20034;-78
2022/04/11 11:16:03;;;;;;;5.88;3.08;;;;;;;12.02;44.50;101552.72;4975431;28;20034;-78
2022/04/11 11:18:50;;;;;;;5.63;3.20;;;;;;;12.09;46.65;101553.47;4977324;28;20034;-78
2022/04/11 11:21:16;;;;;;;5.25;3.17;;;;;;;12.12;45.43;101540.38;4962256;28;20070;-78
2022/04/11 11:24:02;;;;;;;6.30;3.50;;;;;;;12.22;43.94;101530.56;4985055;28;20417;-78
2022/04/11 11:26:38;;;;;;;7.50;3.47;;;;;;;12.26;42.26;101514.84;4980191;28;20042;-78
2022/04/11 11:29:14;;;;;;;5.35;2.90;;;;;;;12.29;44.83;101525.22;4981078;28;20036;-78